| time (UTC) | temp C | wind direction | speed KPH | gust KPH | rain 1hr cm | rain 24hr cm | rain mn cm | humidity % | barometer mb |
| 20260503052518 | 26 | 238 | 3.2 | 6.4 | 0.00 | 0.00 | 0.00 | 67 | 1014.4 |
| 20260503051518 | 26 | 243 | 3.2 | 8.0 | 0.00 | 0.00 | 0.00 | 67 | 1014.4 |
| 20260503050518 | 26 | 246 | 3.2 | 6.4 | 0.00 | 0.00 | 0.00 | 66 | 1014.4 |
| 20260503045518 | 26 | 234 | 3.2 | 6.4 | 0.00 | 0.00 | 0.00 | 66 | 1014.4 |
| 20260503044518 | 26 | 260 | 4.8 | 9.7 | 0.00 | 0.00 | 0.00 | 66 | 1014.4 |
| 20260503043538 | 27 | 239 | 3.2 | 6.4 | 0.00 | 0.00 | 0.00 | 68 | 1014.4 |
| 20260503042518 | 27 | 261 | 3.2 | 8.0 | 0.00 | 0.00 | 0.00 | 69 | 1014.4 |
| 20260503041538 | 27 | 232 | 4.8 | 9.7 | 0.00 | 0.00 | 0.00 | 68 | 1014.4 |
| 20260503040518 | 27 | 233 | 3.2 | 8.0 | 0.00 | 0.00 | 0.00 | 69 | 1014.4 |
| 20260503035518 | 27 | 249 | 1.6 | 6.4 | 0.00 | 0.00 | 0.00 | 68 | 1014.4 |
| 20260503034538 | 27 | 252 | 3.2 | 6.4 | 0.00 | 0.00 | 0.00 | 68 | 1014.4 |
| 20260503033518 | 27 | 247 | 3.2 | 8.0 | 0.00 | 0.00 | 0.00 | 67 | 1013.8 |
| 20260503032518 | 27 | 258 | 1.6 | 6.4 | 0.00 | 0.00 | 0.00 | 67 | 1013.4 |
| 20260503031518 | 27 | 248 | 3.2 | 9.7 | 0.00 | 0.00 | 0.00 | 66 | 1013.4 |
| 20260503030518 | 27 | 272 | 1.6 | 8.0 | 0.00 | 0.00 | 0.00 | 65 | 1013.4 |
| 20260503025518 | 27 | 257 | 3.2 | 6.4 | 0.00 | 0.00 | 0.00 | 65 | 1013.4 |
| 20260503024518 | 27 | 255 | 3.2 | 11.3 | 0.00 | 0.00 | 0.00 | 63 | 1013.4 |
| 20260503023518 | 27 | 246 | 4.8 | 9.7 | 0.00 | 0.00 | 0.00 | 63 | 1013.4 |
| 20260503022518 | 28 | 241 | 4.8 | 9.7 | 0.00 | 0.00 | 0.00 | 61 | 1013.4 |
| 20260503021518 | 28 | 272 | 4.8 | 8.0 | 0.00 | 0.00 | 0.00 | 60 | 1013.4 |
| 20260503020520 | 28 | 258 | 4.8 | 9.7 | 0.00 | 0.00 | 0.00 | 59 | 1013.4 |
| 20260503015558 | 28 | 256 | 3.2 | 11.3 | 0.00 | 0.00 | 0.00 | 58 | 1013.4 |
| 20260503014518 | 28 | 269 | 4.8 | 11.3 | 0.00 | 0.00 | 0.00 | 57 | 1013.4 |
| 20260503013520 | 28 | 268 | 1.6 | 6.4 | 0.00 | 0.00 | 0.00 | 55 | 1013.4 |
| 20260503012518 | 29 | 272 | 6.4 | 9.7 | 0.00 | 0.00 | 0.00 | 54 | 1013.4 |
| 20260503011558 | 29 | 255 | 6.4 | 9.7 | 0.00 | 0.00 | 0.00 | 51 | 1013.4 |
| 20260503010518 | 30 | 271 | 6.4 | 11.3 | 0.00 | 0.00 | 0.00 | 48 | 1012.8 |
| 20260503005518 | 30 | 265 | 4.8 | 9.7 | 0.00 | 0.00 | 0.00 | 46 | 1012.4 |
| 20260503004518 | 30 | 279 | 4.8 | 8.0 | 0.00 | 0.00 | 0.00 | 45 | 1012.4 |
| 20260503003538 | 30 | 272 | 4.8 | 9.7 | 0.00 | 0.00 | 0.00 | 44 | 1012.4 |
| 20260503002519 | 30 | 263 | 4.8 | 9.7 | 0.00 | 0.00 | 0.00 | 43 | 1012.4 |
| 20260503001518 | 31 | 262 | 6.4 | 16.1 | 0.00 | 0.00 | 0.00 | 42 | 1012.4 |
| 20260503000520 | 31 | 251 | 1.6 | 14.5 | 0.00 | 0.00 | 0.00 | 40 | 1012.4 |
| 20260502235518 | 31 | 257 | 4.8 | 11.3 | 0.00 | 0.00 | 0.00 | 38 | 1012.4 |
| 20260502234518 | 31 | 255 | 8.0 | 12.9 | 0.00 | 0.00 | 0.00 | 36 | 1011.4 |
| 20260502233518 | 32 | 242 | 6.4 | 11.3 | 0.00 | 0.00 | 0.00 | 33 | 1011.4 |
| 20260502232518 | 32 | 261 | 4.8 | 12.9 | 0.00 | 0.00 | 0.00 | 32 | 1011.4 |
| 20260502231518 | 33 | 258 | 6.4 | 11.3 | 0.00 | 0.00 | 0.00 | 30 | 1011.4 |
| 20260502230518 | 33 | 270 | 6.4 | 11.3 | 0.00 | 0.00 | 0.00 | 28 | 1011.4 |
| 20260502225518 | 33 | 261 | 3.2 | 9.7 | 0.00 | 0.00 | 0.00 | 27 | 1011.4 |
| 20260502224518 | 34 | 247 | 6.4 | 12.9 | 0.00 | 0.00 | 0.00 | 26 | 1010.4 |
| 20260502223518 | 35 | 261 | 6.4 | 12.9 | 0.00 | 0.00 | 0.00 | 26 | 1010.4 |
| 20260502222518 | 36 | 272 | 4.8 | 11.3 | 0.00 | 0.00 | 0.00 | 24 | 1010.4 |
| 20260502221518 | 36 | 248 | 8.0 | 14.5 | 0.00 | 0.00 | 0.00 | 23 | 1010.4 |
| 20260502220518 | 37 | 263 | 6.4 | 9.7 | 0.00 | 0.00 | 0.00 | 23 | 1010.4 |
| 20260502215538 | 37 | 258 | 8.0 | 14.5 | 0.00 | 0.00 | 0.00 | 22 | 1010.4 |
| 20260502214521 | 37 | 257 | 6.4 | 12.9 | 0.00 | 0.00 | 0.00 | 21 | 1010.4 |
| 20260502213517 | 37 | 227 | 6.4 | 9.7 | 0.00 | 0.00 | 0.00 | 21 | 1010.4 |
| 20260502212518 | 38 | 262 | 6.4 | 12.9 | 0.00 | 0.00 | 0.00 | 20 | 1010.4 |
| 20260502211518 | 38 | 273 | 4.8 | 14.5 | 0.00 | 0.00 | 0.00 | 20 | 1010.4 |
| 20260502210517 | 38 | 248 | 6.4 | 11.3 | 0.00 | 0.00 | 0.00 | 20 | 1010.4 |
| 20260502205518 | 37 | 262 | 8.0 | 12.9 | 0.00 | 0.00 | 0.00 | 21 | 1010.4 |
| 20260502204518 | 38 | 297 | 6.4 | 11.3 | 0.00 | 0.00 | 0.00 | 21 | 1010.4 |
| 20260502203558 | 37 | 238 | 8.0 | 11.3 | 0.00 | 0.00 | 0.00 | 21 | 1010.4 |
| 20260502202518 | 39 | 268 | 8.0 | 12.9 | 0.00 | 0.00 | 0.00 | 20 | 1010.4 |
| 20260502201517 | 38 | 244 | 8.0 | 12.9 | 0.00 | 0.00 | 0.00 | 22 | 1010.4 |
| 20260502200518 | 38 | 239 | 8.0 | 11.3 | 0.00 | 0.00 | 0.00 | 24 | 1010.4 |
| 20260502195517 | 38 | 234 | 9.7 | 14.5 | 0.00 | 0.00 | 0.00 | 22 | 1010.4 |
| 20260502194538 | 38 | 253 | 8.0 | 14.5 | 0.00 | 0.00 | 0.00 | 23 | 1010.4 |
| 20260502193517 | 38 | 222 | 8.0 | 14.5 | 0.00 | 0.00 | 0.00 | 25 | 1010.4 |
| 20260502192518 | 38 | 251 | 8.0 | 19.3 | 0.00 | 0.00 | 0.00 | 25 | 1010.4 |
| 20260502191518 | 38 | 232 | 9.7 | 19.3 | 0.00 | 0.00 | 0.00 | 25 | 1011.4 |
| 20260502190518 | 38 | 255 | 8.0 | 17.7 | 0.00 | 0.00 | 0.00 | 25 | 1011.4 |
| 20260502185538 | 38 | 248 | 8.0 | 17.7 | 0.00 | 0.00 | 0.00 | 24 | 1011.4 |
| 20260502184538 | 38 | 243 | 9.7 | 20.9 | 0.00 | 0.00 | 0.00 | 25 | 1011.4 |
| 20260502183517 | 38 | 232 | 8.0 | 16.1 | 0.00 | 0.00 | 0.00 | 25 | 1011.4 |
| 20260502182518 | 37 | 263 | 8.0 | 17.7 | 0.00 | 0.00 | 0.00 | 26 | 1011.4 |
| 20260502181520 | 37 | 254 | 8.0 | 12.9 | 0.00 | 0.00 | 0.00 | 29 | 1011.4 |
| 20260502180517 | 37 | 231 | 6.4 | 14.5 | 0.00 | 0.00 | 0.00 | 31 | 1011.4 |
| 20260502170517 | 36 | 179 | 9.7 | 19.3 | 0.00 | 0.00 | 0.00 | 36 | 1011.4 |
| 20260502163540 | 35 | 226 | 8.0 | 16.1 | 0.00 | 0.00 | 0.00 | 39 | 1011.9 |
| 20260502162518 | 36 | 185 | 8.0 | 11.3 | 0.00 | 0.00 | 0.00 | 37 | 1012.4 |
| 20260502161517 | 36 | 218 | 8.0 | 14.5 | 0.00 | 0.00 | 0.00 | 38 | 1012.4 |
| 20260502160518 | 36 | 223 | 8.0 | 14.5 | 0.00 | 0.00 | 0.00 | 38 | 1012.4 |
| 20260502151517 | 34 | 224 | 8.0 | 12.9 | 0.00 | 0.00 | 0.00 | 40 | 1012.4 |
| 20260502150537 | 34 | 193 | 8.0 | 12.9 | 0.00 | 0.00 | 0.00 | 39 | 1012.4 |
| 20260502130518 | 30 | 170 | 8.0 | 14.5 | 0.00 | 0.00 | 0.00 | 62 | 1012.4 |
| 20260502123517 | 29 | 196 | 6.4 | 12.9 | 0.00 | 0.00 | 0.00 | 68 | 1012.4 |
| 20260502122517 | 28 | 164 | 3.2 | 8.0 | 0.00 | 0.00 | 0.00 | 71 | 1012.4 |
| 20260502121517 | 27 | 183 | 3.2 | 6.4 | 0.00 | 0.00 | 0.00 | 75 | 1012.4 |
| 20260502120558 | 26 | 181 | 1.6 | 6.4 | 0.00 | 0.00 | 0.00 | 76 | 1012.4 |
| 20260502115517 | 26 | 149 | 1.6 | 6.4 | 0.00 | 0.00 | 0.00 | 78 | 1012.4 |
| 20260502114517 | 25 | 0.0 | 6.4 | 0.00 | 0.00 | 0.00 | 82 | 1012.4 | |
| 20260502113517 | 25 | 0.0 | 4.8 | 0.00 | 0.00 | 0.00 | 82 | 1012.4 | |
| 20260502112518 | 24 | 0.0 | 0.0 | 0.00 | 0.00 | 0.00 | 82 | 1012.4 | |
| 20260502111537 | 23 | 0.0 | 0.0 | 0.00 | 0.00 | 0.00 | 82 | 1012.4 | |
| 20260502110520 | 23 | 0.0 | 0.0 | 0.00 | 0.00 | 0.00 | 81 | 1012.4 | |
| 20260502105517 | 23 | 0.0 | 0.0 | 0.00 | 0.00 | 0.00 | 80 | 1012.4 | |
| 20260502104517 | 23 | 0.0 | 0.0 | 0.00 | 0.00 | 0.00 | 80 | 1012.4 | |
| 20260502103518 | 23 | 0.0 | 0.0 | 0.00 | 0.00 | 0.00 | 80 | 1012.4 | |
| 20260502102517 | 23 | 0.0 | 0.0 | 0.00 | 0.00 | 0.00 | 80 | 1012.4 | |
| 20260502101517 | 23 | 0.0 | 0.0 | 0.00 | 0.00 | 0.00 | 80 | 1012.4 | |
| 20260502100518 | 24 | 0.0 | 0.0 | 0.00 | 0.00 | 0.00 | 80 | 1012.4 | |
| 20260502091517 | 23 | 0.0 | 0.0 | 0.00 | 0.00 | 0.00 | 79 | 1012.4 | |
| 20260502090537 | 23 | 0.0 | 0.0 | 0.00 | 0.00 | 0.00 | 79 | 1012.4 | |
| 20260502070517 | 23 | 0.0 | 0.0 | 0.00 | 0.00 | 0.00 | 73 | 1012.4 | |
| 20260502065517 | 23 | 0.0 | 0.0 | 0.00 | 0.00 | 0.00 | 73 | 1012.4 | |
| 20260502064517 | 23 | 0.0 | 0.0 | 0.00 | 0.00 | 0.00 | 72 | 1012.4 | |
| 20260502063517 | 23 | 0.0 | 0.0 | 0.00 | 0.00 | 0.00 | 71 | 1012.4 | |
| 20260502062517 | 23 | 0.0 | 0.0 | 0.00 | 0.00 | 0.00 | 72 | 1012.4 | |
| 20260502060517 | 24 | 0.0 | 0.0 | 0.00 | 0.00 | 0.00 | 71 | 1012.4 | |
| 20260502055517 | 24 | 0.0 | 0.0 | 0.00 | 0.00 | 0.00 | 71 | 1012.4 | |
| 20260502054537 | 24 | 0.0 | 0.0 | 0.00 | 0.00 | 0.00 | 69 | 1012.4 | |
| 20260502053517 | 24 | 0.0 | 0.0 | 0.00 | 0.00 | 0.00 | 69 | 1012.4 |